sensor_id;sensor_type;location;lat;lon;timestamp;P1;durP1;ratioP1;P2;durP2;ratioP2
56718;SDS011;42597;40.636;0.278;2022-07-25T00:01:53;9.02;;;6.32;;
56718;SDS011;42597;40.636;0.278;2022-07-25T00:04:19;9.13;;;6.53;;
56718;SDS011;42597;40.636;0.278;2022-07-25T00:06:46;9.95;;;6.65;;
56718;SDS011;42597;40.636;0.278;2022-07-25T00:09:12;10.88;;;7.63;;
56718;SDS011;42597;40.636;0.278;2022-07-25T00:11:37;8.88;;;6.78;;
56718;SDS011;42597;40.636;0.278;2022-07-25T00:14:03;10.23;;;7.43;;
56718;SDS011;42597;40.636;0.278;2022-07-25T00:16:30;9.52;;;6.88;;
56718;SDS011;42597;40.636;0.278;2022-07-25T00:18:55;7.82;;;6.47;;
56718;SDS011;42597;40.636;0.278;2022-07-25T00:21:21;9.88;;;6.70;;
56718;SDS011;42597;40.636;0.278;2022-07-25T00:23:47;8.75;;;6.70;;
56718;SDS011;42597;40.636;0.278;2022-07-25T00:26:13;7.40;;;6.70;;
56718;SDS011;42597;40.636;0.278;2022-07-25T00:28:38;8.45;;;6.22;;
56718;SDS011;42597;40.636;0.278;2022-07-25T00:31:04;11.18;;;6.82;;
56718;SDS011;42597;40.636;0.278;2022-07-25T00:33:30;11.05;;;6.70;;
56718;SDS011;42597;40.636;0.278;2022-07-25T00:35:56;10.93;;;6.43;;
56718;SDS011;42597;40.636;0.278;2022-07-25T00:38:22;8.05;;;6.68;;
56718;SDS011;42597;40.636;0.278;2022-07-25T00:40:47;9.88;;;6.47;;
56718;SDS011;42597;40.636;0.278;2022-07-25T00:43:13;10.30;;;7.32;;
56718;SDS011;42597;40.636;0.278;2022-07-25T00:45:38;10.10;;;6.68;;
56718;SDS011;42597;40.636;0.278;2022-07-25T00:48:04;9.68;;;7.00;;
56718;SDS011;42597;40.636;0.278;2022-07-25T00:50:32;14.33;;;7.27;;
56718;SDS011;42597;40.636;0.278;2022-07-25T00:52:58;17.88;;;8.32;;
56718;SDS011;42597;40.636;0.278;2022-07-25T00:55:24;9.27;;;6.72;;
56718;SDS011;42597;40.636;0.278;2022-07-25T00:57:50;11.52;;;7.18;;
56718;SDS011;42597;40.636;0.278;2022-07-25T01:00:16;9.07;;;6.07;;
56718;SDS011;42597;40.636;0.278;2022-07-25T01:02:43;9.70;;;7.57;;
56718;SDS011;42597;40.636;0.278;2022-07-25T01:05:09;10.93;;;6.50;;
56718;SDS011;42597;40.636;0.278;2022-07-25T01:07:36;6.93;;;6.15;;
56718;SDS011;42597;40.636;0.278;2022-07-25T01:10:03;10.73;;;6.85;;
56718;SDS011;42597;40.636;0.278;2022-07-25T01:12:30;9.27;;;7.10;;
56718;SDS011;42597;40.636;0.278;2022-07-25T01:14:56;12.73;;;7.10;;
56718;SDS011;42597;40.636;0.278;2022-07-25T01:17:22;8.48;;;6.75;;
56718;SDS011;42597;40.636;0.278;2022-07-25T01:19:48;9.68;;;6.60;;
56718;SDS011;42597;40.636;0.278;2022-07-25T01:22:15;7.80;;;6.03;;
56718;SDS011;42597;40.636;0.278;2022-07-25T01:24:41;9.48;;;6.78;;
56718;SDS011;42597;40.636;0.278;2022-07-25T01:27:07;8.05;;;6.22;;
56718;SDS011;42597;40.636;0.278;2022-07-25T01:29:33;9.13;;;7.07;;
56718;SDS011;42597;40.636;0.278;2022-07-25T01:31:58;10.45;;;6.15;;
56718;SDS011;42597;40.636;0.278;2022-07-25T01:34:24;8.98;;;6.10;;
56718;SDS011;42597;40.636;0.278;2022-07-25T01:36:50;10.43;;;7.50;;
56718;SDS011;42597;40.636;0.278;2022-07-25T01:39:15;12.02;;;6.88;;
56718;SDS011;42597;40.636;0.278;2022-07-25T01:41:41;10.18;;;6.78;;
56718;SDS011;42597;40.636;0.278;2022-07-25T01:44:07;8.32;;;6.88;;
56718;SDS011;42597;40.636;0.278;2022-07-25T01:46:32;9.82;;;7.00;;
56718;SDS011;42597;40.636;0.278;2022-07-25T01:48:58;12.73;;;6.93;;
56718;SDS011;42597;40.636;0.278;2022-07-25T01:51:24;12.90;;;7.28;;
56718;SDS011;42597;40.636;0.278;2022-07-25T01:53:49;9.80;;;8.13;;
56718;SDS011;42597;40.636;0.278;2022-07-25T01:56:15;8.80;;;7.05;;
56718;SDS011;42597;40.636;0.278;2022-07-25T01:58:41;7.53;;;6.72;;
56718;SDS011;42597;40.636;0.278;2022-07-25T02:01:06;10.25;;;7.47;;
56718;SDS011;42597;40.636;0.278;2022-07-25T02:03:32;8.45;;;6.15;;
56718;SDS011;42597;40.636;0.278;2022-07-25T02:05:58;9.27;;;7.35;;
56718;SDS011;42597;40.636;0.278;2022-07-25T02:08:26;11.80;;;6.65;;
56718;SDS011;42597;40.636;0.278;2022-07-25T02:10:52;9.43;;;7.93;;
56718;SDS011;42597;40.636;0.278;2022-07-25T02:13:17;9.82;;;6.68;;
56718;SDS011;42597;40.636;0.278;2022-07-25T02:15:43;14.15;;;7.28;;
56718;SDS011;42597;40.636;0.278;2022-07-25T02:18:09;9.60;;;6.97;;
56718;SDS011;42597;40.636;0.278;2022-07-25T02:20:34;9.85;;;6.97;;
56718;SDS011;42597;40.636;0.278;2022-07-25T02:23:00;8.25;;;6.00;;
56718;SDS011;42597;40.636;0.278;2022-07-25T02:25:26;10.10;;;6.63;;
56718;SDS011;42597;40.636;0.278;2022-07-25T02:27:51;12.02;;;6.78;;
56718;SDS011;42597;40.636;0.278;2022-07-25T02:30:17;10.00;;;7.38;;
56718;SDS011;42597;40.636;0.278;2022-07-25T02:32:42;8.88;;;6.80;;
56718;SDS011;42597;40.636;0.278;2022-07-25T02:35:08;8.57;;;6.90;;
56718;SDS011;42597;40.636;0.278;2022-07-25T02:37:34;10.18;;;7.90;;
56718;SDS011;42597;40.636;0.278;2022-07-25T02:39:59;9.45;;;7.35;;
56718;SDS011;42597;40.636;0.278;2022-07-25T02:42:25;12.75;;;8.05;;
56718;SDS011;42597;40.636;0.278;2022-07-25T02:44:50;8.45;;;6.80;;
56718;SDS011;42597;40.636;0.278;2022-07-25T02:47:16;9.77;;;6.82;;
56718;SDS011;42597;40.636;0.278;2022-07-25T02:49:41;10.63;;;6.97;;
56718;SDS011;42597;40.636;0.278;2022-07-25T02:52:07;9.65;;;7.13;;
56718;SDS011;42597;40.636;0.278;2022-07-25T02:54:33;9.43;;;6.88;;
56718;SDS011;42597;40.636;0.278;2022-07-25T02:56:58;11.35;;;7.05;;
56718;SDS011;42597;40.636;0.278;2022-07-25T02:59:24;14.02;;;7.38;;
56718;SDS011;42597;40.636;0.278;2022-07-25T03:01:50;9.23;;;7.18;;
56718;SDS011;42597;40.636;0.278;2022-07-25T03:04:15;9.32;;;6.55;;
56718;SDS011;42597;40.636;0.278;2022-07-25T03:06:41;10.60;;;7.50;;
56718;SDS011;42597;40.636;0.278;2022-07-25T03:09:07;8.32;;;6.45;;
56718;SDS011;42597;40.636;0.278;2022-07-25T03:11:32;8.02;;;7.22;;
56718;SDS011;42597;40.636;0.278;2022-07-25T03:13:58;11.52;;;7.88;;
56718;SDS011;42597;40.636;0.278;2022-07-25T03:16:24;8.57;;;6.75;;
56718;SDS011;42597;40.636;0.278;2022-07-25T03:18:50;8.05;;;6.13;;
56718;SDS011;42597;40.636;0.278;2022-07-25T03:21:16;11.73;;;7.13;;
56718;SDS011;42597;40.636;0.278;2022-07-25T03:23:42;12.30;;;8.02;;
56718;SDS011;42597;40.636;0.278;2022-07-25T03:26:08;9.20;;;7.50;;
56718;SDS011;42597;40.636;0.278;2022-07-25T03:28:34;11.90;;;7.55;;
56718;SDS011;42597;40.636;0.278;2022-07-25T03:30:59;11.30;;;7.82;;
56718;SDS011;42597;40.636;0.278;2022-07-25T03:33:25;10.52;;;7.25;;
56718;SDS011;42597;40.636;0.278;2022-07-25T03:35:51;10.18;;;7.65;;
56718;SDS011;42597;40.636;0.278;2022-07-25T03:38:16;9.90;;;6.82;;
56718;SDS011;42597;40.636;0.278;2022-07-25T03:40:42;8.88;;;6.88;;
56718;SDS011;42597;40.636;0.278;2022-07-25T03:43:08;10.27;;;7.25;;
56718;SDS011;42597;40.636;0.278;2022-07-25T03:45:34;11.55;;;7.40;;
56718;SDS011;42597;40.636;0.278;2022-07-25T03:47:59;11.48;;;7.75;;
56718;SDS011;42597;40.636;0.278;2022-07-25T03:50:26;11.70;;;7.88;;
56718;SDS011;42597;40.636;0.278;2022-07-25T03:52:51;10.48;;;8.07;;
56718;SDS011;42597;40.636;0.278;2022-07-25T03:55:17;11.63;;;8.13;;
56718;SDS011;42597;40.636;0.278;2022-07-25T03:57:43;10.93;;;6.30;;
56718;SDS011;42597;40.636;0.278;2022-07-25T04:00:09;10.73;;;6.90;;
56718;SDS011;42597;40.636;0.278;2022-07-25T04:02:36;11.38;;;7.72;;
56718;SDS011;42597;40.636;0.278;2022-07-25T04:05:03;13.65;;;7.25;;
56718;SDS011;42597;40.636;0.278;2022-07-25T04:07:32;14.43;;;7.63;;
56718;SDS011;42597;40.636;0.278;2022-07-25T04:09:58;11.55;;;7.60;;
56718;SDS011;42597;40.636;0.278;2022-07-25T04:12:24;12.63;;;8.90;;
56718;SDS011;42597;40.636;0.278;2022-07-25T04:14:49;18.55;;;8.38;;
56718;SDS011;42597;40.636;0.278;2022-07-25T04:17:16;12.73;;;9.38;;
56718;SDS011;42597;40.636;0.278;2022-07-25T04:19:42;14.30;;;9.52;;
56718;SDS011;42597;40.636;0.278;2022-07-25T04:22:07;18.40;;;10.88;;
56718;SDS011;42597;40.636;0.278;2022-07-25T04:24:33;11.70;;;9.25;;
56718;SDS011;42597;40.636;0.278;2022-07-25T04:26:59;13.38;;;9.77;;
56718;SDS011;42597;40.636;0.278;2022-07-25T04:29:24;13.45;;;9.85;;
56718;SDS011;42597;40.636;0.278;2022-07-25T04:31:50;11.27;;;10.15;;
56718;SDS011;42597;40.636;0.278;2022-07-25T04:34:16;14.20;;;11.38;;
56718;SDS011;42597;40.636;0.278;2022-07-25T04:36:41;15.15;;;10.45;;
56718;SDS011;42597;40.636;0.278;2022-07-25T04:39:07;16.75;;;10.43;;
56718;SDS011;42597;40.636;0.278;2022-07-25T04:41:33;15.15;;;11.23;;
56718;SDS011;42597;40.636;0.278;2022-07-25T04:43:59;11.70;;;8.65;;
56718;SDS011;42597;40.636;0.278;2022-07-25T04:46:24;16.27;;;9.07;;
56718;SDS011;42597;40.636;0.278;2022-07-25T04:48:50;12.85;;;9.73;;
56718;SDS011;42597;40.636;0.278;2022-07-25T04:51:16;13.70;;;9.75;;
56718;SDS011;42597;40.636;0.278;2022-07-25T04:53:43;13.32;;;10.00;;
56718;SDS011;42597;40.636;0.278;2022-07-25T04:56:09;14.48;;;11.18;;
56718;SDS011;42597;40.636;0.278;2022-07-25T04:58:34;17.70;;;13.45;;
56718;SDS011;42597;40.636;0.278;2022-07-25T05:01:00;15.85;;;13.63;;
56718;SDS011;42597;40.636;0.278;2022-07-25T05:03:26;17.27;;;13.25;;
56718;SDS011;42597;40.636;0.278;2022-07-25T05:05:51;16.05;;;14.15;;
56718;SDS011;42597;40.636;0.278;2022-07-25T05:08:17;15.45;;;12.23;;
56718;SDS011;42597;40.636;0.278;2022-07-25T05:10:43;15.00;;;13.48;;
56718;SDS011;42597;40.636;0.278;2022-07-25T05:13:08;15.77;;;12.30;;
56718;SDS011;42597;40.636;0.278;2022-07-25T05:15:34;24.05;;;18.33;;
56718;SDS011;42597;40.636;0.278;2022-07-25T05:18:00;17.95;;;15.52;;
56718;SDS011;42597;40.636;0.278;2022-07-25T05:20:26;22.58;;;18.00;;
56718;SDS011;42597;40.636;0.278;2022-07-25T05:22:52;19.10;;;14.35;;
56718;SDS011;42597;40.636;0.278;2022-07-25T05:25:18;22.90;;;13.88;;
56718;SDS011;42597;40.636;0.278;2022-07-25T05:27:44;16.80;;;13.05;;
56718;SDS011;42597;40.636;0.278;2022-07-25T05:30:10;19.75;;;13.48;;
56718;SDS011;42597;40.636;0.278;2022-07-25T05:32:36;18.55;;;14.63;;
56718;SDS011;42597;40.636;0.278;2022-07-25T05:35:03;15.85;;;12.63;;
56718;SDS011;42597;40.636;0.278;2022-07-25T05:37:30;17.05;;;12.07;;
56718;SDS011;42597;40.636;0.278;2022-07-25T05:39:55;16.30;;;12.65;;
56718;SDS011;42597;40.636;0.278;2022-07-25T05:42:21;18.60;;;12.48;;
56718;SDS011;42597;40.636;0.278;2022-07-25T05:44:47;19.27;;;14.23;;
56718;SDS011;42597;40.636;0.278;2022-07-25T05:47:13;13.95;;;12.38;;
56718;SDS011;42597;40.636;0.278;2022-07-25T05:49:38;13.52;;;12.20;;
56718;SDS011;42597;40.636;0.278;2022-07-25T05:52:04;17.30;;;12.55;;
56718;SDS011;42597;40.636;0.278;2022-07-25T05:54:30;17.00;;;13.25;;
56718;SDS011;42597;40.636;0.278;2022-07-25T05:56:56;18.80;;;14.30;;
56718;SDS011;42597;40.636;0.278;2022-07-25T05:59:22;19.92;;;14.43;;
56718;SDS011;42597;40.636;0.278;2022-07-25T06:01:47;21.35;;;15.10;;
56718;SDS011;42597;40.636;0.278;2022-07-25T06:04:13;23.73;;;16.00;;
56718;SDS011;42597;40.636;0.278;2022-07-25T06:06:38;18.88;;;12.50;;
56718;SDS011;42597;40.636;0.278;2022-07-25T06:09:04;22.63;;;12.98;;
56718;SDS011;42597;40.636;0.278;2022-07-25T06:11:30;13.52;;;12.13;;
56718;SDS011;42597;40.636;0.278;2022-07-25T06:13:56;18.45;;;15.40;;
56718;SDS011;42597;40.636;0.278;2022-07-25T06:16:22;16.88;;;15.27;;
56718;SDS011;42597;40.636;0.278;2022-07-25T06:18:48;16.30;;;14.70;;
56718;SDS011;42597;40.636;0.278;2022-07-25T06:21:14;20.83;;;15.52;;
56718;SDS011;42597;40.636;0.278;2022-07-25T06:23:39;17.67;;;15.88;;
56718;SDS011;42597;40.636;0.278;2022-07-25T06:26:08;18.75;;;14.70;;
56718;SDS011;42597;40.636;0.278;2022-07-25T06:28:35;17.73;;;16.05;;
56718;SDS011;42597;40.636;0.278;2022-07-25T06:31:02;18.08;;;16.08;;
56718;SDS011;42597;40.636;0.278;2022-07-25T06:33:28;18.25;;;15.23;;
56718;SDS011;42597;40.636;0.278;2022-07-25T06:35:53;18.75;;;15.00;;
56718;SDS011;42597;40.636;0.278;2022-07-25T06:38:19;14.48;;;13.00;;
56718;SDS011;42597;40.636;0.278;2022-07-25T06:40:45;15.90;;;14.40;;
56718;SDS011;42597;40.636;0.278;2022-07-25T06:43:10;18.30;;;14.80;;
56718;SDS011;42597;40.636;0.278;2022-07-25T06:45:36;18.95;;;14.25;;
56718;SDS011;42597;40.636;0.278;2022-07-25T06:48:02;17.30;;;15.30;;
56718;SDS011;42597;40.636;0.278;2022-07-25T06:50:27;17.65;;;14.80;;
56718;SDS011;42597;40.636;0.278;2022-07-25T06:52:53;15.90;;;13.45;;
56718;SDS011;42597;40.636;0.278;2022-07-25T06:55:19;19.52;;;14.18;;
56718;SDS011;42597;40.636;0.278;2022-07-25T06:57:45;20.35;;;13.52;;
56718;SDS011;42597;40.636;0.278;2022-07-25T07:00:11;14.55;;;13.10;;
56718;SDS011;42597;40.636;0.278;2022-07-25T07:02:51;14.63;;;11.57;;
56718;SDS011;42597;40.636;0.278;2022-07-25T07:05:20;25.27;;;17.23;;
56718;SDS011;42597;40.636;0.278;2022-07-25T07:07:46;17.67;;;14.90;;
56718;SDS011;42597;40.636;0.278;2022-07-25T07:10:11;17.38;;;15.30;;
56718;SDS011;42597;40.636;0.278;2022-07-25T07:12:37;14.45;;;12.95;;
56718;SDS011;42597;40.636;0.278;2022-07-25T07:15:03;19.95;;;13.45;;
56718;SDS011;42597;40.636;0.278;2022-07-25T07:17:29;17.98;;;13.48;;
56718;SDS011;42597;40.636;0.278;2022-07-25T07:19:55;17.73;;;13.73;;
56718;SDS011;42597;40.636;0.278;2022-07-25T07:22:20;15.23;;;13.60;;
56718;SDS011;42597;40.636;0.278;2022-07-25T07:24:46;15.10;;;13.52;;
56718;SDS011;42597;40.636;0.278;2022-07-25T07:27:12;15.93;;;13.32;;
56718;SDS011;42597;40.636;0.278;2022-07-25T07:29:38;16.02;;;12.77;;
56718;SDS011;42597;40.636;0.278;2022-07-25T07:32:03;14.38;;;12.48;;
56718;SDS011;42597;40.636;0.278;2022-07-25T07:34:31;13.75;;;11.88;;
56718;SDS011;42597;40.636;0.278;2022-07-25T07:36:56;15.02;;;12.20;;
56718;SDS011;42597;40.636;0.278;2022-07-25T07:39:22;17.02;;;11.98;;
56718;SDS011;42597;40.636;0.278;2022-07-25T07:41:48;17.23;;;11.50;;
56718;SDS011;42597;40.636;0.278;2022-07-25T07:44:13;13.68;;;12.15;;
56718;SDS011;42597;40.636;0.278;2022-07-25T07:46:39;15.27;;;10.23;;
56718;SDS011;42597;40.636;0.278;2022-07-25T07:49:05;15.70;;;11.70;;
56718;SDS011;42597;40.636;0.278;2022-07-25T07:51:30;12.93;;;11.65;;
56718;SDS011;42597;40.636;0.278;2022-07-25T07:53:56;15.63;;;12.38;;
56718;SDS011;42597;40.636;0.278;2022-07-25T07:56:40;17.60;;;11.68;;
56718;SDS011;42597;40.636;0.278;2022-07-25T07:59:06;14.55;;;10.48;;
56718;SDS011;42597;40.636;0.278;2022-07-25T08:01:32;15.40;;;11.00;;
56718;SDS011;42597;40.636;0.278;2022-07-25T08:03:58;26.05;;;12.48;;
56718;SDS011;42597;40.636;0.278;2022-07-25T08:06:24;19.38;;;11.90;;
56718;SDS011;42597;40.636;0.278;2022-07-25T08:08:51;15.30;;;10.52;;
56718;SDS011;42597;40.636;0.278;2022-07-25T08:11:17;18.02;;;10.90;;
56718;SDS011;42597;40.636;0.278;2022-07-25T08:13:43;10.85;;;9.77;;
56718;SDS011;42597;40.636;0.278;2022-07-25T08:16:08;13.70;;;9.95;;
56718;SDS011;42597;40.636;0.278;2022-07-25T08:18:35;11.00;;;9.93;;
56718;SDS011;42597;40.636;0.278;2022-07-25T08:21:02;15.52;;;11.13;;
56718;SDS011;42597;40.636;0.278;2022-07-25T08:23:30;14.30;;;11.00;;
56718;SDS011;42597;40.636;0.278;2022-07-25T08:25:59;13.73;;;9.20;;
56718;SDS011;42597;40.636;0.278;2022-07-25T08:28:26;16.10;;;10.52;;
56718;SDS011;42597;40.636;0.278;2022-07-25T08:30:52;10.90;;;9.65;;
56718;SDS011;42597;40.636;0.278;2022-07-25T08:33:18;13.18;;;10.25;;
56718;SDS011;42597;40.636;0.278;2022-07-25T08:35:48;20.70;;;10.55;;
56718;SDS011;42597;40.636;0.278;2022-07-25T08:38:17;14.73;;;9.82;;
56718;SDS011;42597;40.636;0.278;2022-07-25T08:40:42;14.40;;;9.50;;
56718;SDS011;42597;40.636;0.278;2022-07-25T08:43:12;10.55;;;9.45;;
56718;SDS011;42597;40.636;0.278;2022-07-25T08:45:49;11.23;;;9.93;;
56718;SDS011;42597;40.636;0.278;2022-07-25T08:48:17;10.55;;;9.45;;
56718;SDS011;42597;40.636;0.278;2022-07-25T08:50:47;18.88;;;9.48;;
56718;SDS011;42597;40.636;0.278;2022-07-25T08:53:14;15.50;;;10.52;;
56718;SDS011;42597;40.636;0.278;2022-07-25T08:55:43;15.45;;;10.57;;
56718;SDS011;42597;40.636;0.278;2022-07-25T08:58:10;11.50;;;9.43;;
56718;SDS011;42597;40.636;0.278;2022-07-25T09:00:36;17.60;;;10.23;;
56718;SDS011;42597;40.636;0.278;2022-07-25T09:03:02;10.63;;;8.90;;
56718;SDS011;42597;40.636;0.278;2022-07-25T09:05:32;15.65;;;9.75;;
56718;SDS011;42597;40.636;0.278;2022-07-25T09:10:46;14.93;;;10.02;;
56718;SDS011;42597;40.636;0.278;2022-07-25T09:13:16;14.63;;;9.40;;
56718;SDS011;42597;40.636;0.278;2022-07-25T09:15:44;15.15;;;10.45;;
56718;SDS011;42597;40.636;0.278;2022-07-25T09:18:14;19.55;;;10.43;;
56718;SDS011;42597;40.636;0.278;2022-07-25T09:20:48;13.15;;;9.18;;
56718;SDS011;42597;40.636;0.278;2022-07-25T09:26:09;16.23;;;9.80;;
56718;SDS011;42597;40.636;0.278;2022-07-25T09:31:06;11.63;;;10.02;;
56718;SDS011;42597;40.636;0.278;2022-07-25T09:33:34;10.75;;;9.43;;
56718;SDS011;42597;40.636;0.278;2022-07-25T09:36:24;12.23;;;8.57;;
56718;SDS011;42597;40.636;0.278;2022-07-25T09:38:53;15.60;;;9.55;;
56718;SDS011;42597;40.636;0.278;2022-07-25T09:41:20;13.70;;;8.70;;
56718;SDS011;42597;40.636;0.278;2022-07-25T09:43:47;15.75;;;9.25;;
56718;SDS011;42597;40.636;0.278;2022-07-25T09:46:12;12.23;;;9.30;;
56718;SDS011;42597;40.636;0.278;2022-07-25T09:48:38;14.18;;;8.65;;
56718;SDS011;42597;40.636;0.278;2022-07-25T09:51:08;17.42;;;10.00;;
56718;SDS011;42597;40.636;0.278;2022-07-25T09:53:33;13.20;;;8.05;;
56718;SDS011;42597;40.636;0.278;2022-07-25T09:55:59;11.45;;;9.23;;
56718;SDS011;42597;40.636;0.278;2022-07-25T09:58:25;10.90;;;9.10;;
56718;SDS011;42597;40.636;0.278;2022-07-25T10:00:53;13.77;;;8.68;;
56718;SDS011;42597;40.636;0.278;2022-07-25T10:06:20;15.82;;;8.48;;
56718;SDS011;42597;40.636;0.278;2022-07-25T10:08:46;13.38;;;8.20;;
56718;SDS011;42597;40.636;0.278;2022-07-25T10:13:46;19.20;;;9.50;;
56718;SDS011;42597;40.636;0.278;2022-07-25T10:16:15;14.52;;;9.60;;
56718;SDS011;42597;40.636;0.278;2022-07-25T10:18:52;11.45;;;8.85;;
56718;SDS011;42597;40.636;0.278;2022-07-25T10:21:20;16.88;;;9.00;;
56718;SDS011;42597;40.636;0.278;2022-07-25T10:24:00;14.43;;;9.70;;
56718;SDS011;42597;40.636;0.278;2022-07-25T10:26:26;14.68;;;9.60;;
56718;SDS011;42597;40.636;0.278;2022-07-25T10:28:53;16.48;;;9.90;;
56718;SDS011;42597;40.636;0.278;2022-07-25T10:36:19;12.52;;;9.18;;
56718;SDS011;42597;40.636;0.278;2022-07-25T10:38:49;10.85;;;9.60;;
56718;SDS011;42597;40.636;0.278;2022-07-25T10:41:16;13.45;;;10.00;;
56718;SDS011;42597;40.636;0.278;2022-07-25T10:43:43;10.18;;;8.90;;
56718;SDS011;42597;40.636;0.278;2022-07-25T10:46:16;14.95;;;11.23;;
56718;SDS011;42597;40.636;0.278;2022-07-25T10:48:43;14.15;;;8.77;;
56718;SDS011;42597;40.636;0.278;2022-07-25T10:51:10;12.18;;;8.88;;
56718;SDS011;42597;40.636;0.278;2022-07-25T10:56:08;14.15;;;11.10;;
56718;SDS011;42597;40.636;0.278;2022-07-25T11:01:25;15.43;;;11.57;;
56718;SDS011;42597;40.636;0.278;2022-07-25T11:03:51;14.48;;;9.68;;
56718;SDS011;42597;40.636;0.278;2022-07-25T11:06:36;12.73;;;10.35;;
56718;SDS011;42597;40.636;0.278;2022-07-25T11:09:20;14.20;;;11.25;;
56718;SDS011;42597;40.636;0.278;2022-07-25T11:11:54;14.35;;;11.05;;
56718;SDS011;42597;40.636;0.278;2022-07-25T11:14:27;13.52;;;11.55;;
56718;SDS011;42597;40.636;0.278;2022-07-25T11:17:11;18.05;;;10.45;;
56718;SDS011;42597;40.636;0.278;2022-07-25T11:19:44;14.63;;;11.43;;
56718;SDS011;42597;40.636;0.278;2022-07-25T11:22:22;18.13;;;11.18;;
56718;SDS011;42597;40.636;0.278;2022-07-25T11:24:48;19.58;;;11.55;;
56718;SDS011;42597;40.636;0.278;2022-07-25T11:27:21;18.42;;;11.18;;
56718;SDS011;42597;40.636;0.278;2022-07-25T11:29:52;13.32;;;11.35;;
56718;SDS011;42597;40.636;0.278;2022-07-25T11:32:36;11.95;;;10.85;;
56718;SDS011;42597;40.636;0.278;2022-07-25T11:35:06;18.58;;;10.65;;
56718;SDS011;42597;40.636;0.278;2022-07-25T11:37:34;13.48;;;10.10;;
56718;SDS011;42597;40.636;0.278;2022-07-25T11:40:02;13.23;;;10.23;;
56718;SDS011;42597;40.636;0.278;2022-07-25T11:42:37;13.40;;;11.75;;
56718;SDS011;42597;40.636;0.278;2022-07-25T11:45:23;11.70;;;10.50;;
56718;SDS011;42597;40.636;0.278;2022-07-25T11:48:04;13.15;;;10.52;;
56718;SDS011;42597;40.636;0.278;2022-07-25T11:50:31;13.25;;;10.25;;
56718;SDS011;42597;40.636;0.278;2022-07-25T11:52:59;16.42;;;9.63;;
56718;SDS011;42597;40.636;0.278;2022-07-25T11:55:27;11.48;;;10.48;;
56718;SDS011;42597;40.636;0.278;2022-07-25T11:57:56;12.30;;;10.63;;
56718;SDS011;42597;40.636;0.278;2022-07-25T12:00:27;12.95;;;10.65;;
56718;SDS011;42597;40.636;0.278;2022-07-25T12:02:53;14.43;;;12.00;;
56718;SDS011;42597;40.636;0.278;2022-07-25T12:05:30;12.82;;;10.48;;
56718;SDS011;42597;40.636;0.278;2022-07-25T12:07:57;12.30;;;11.00;;
56718;SDS011;42597;40.636;0.278;2022-07-25T12:10:32;16.27;;;10.73;;
56718;SDS011;42597;40.636;0.278;2022-07-25T12:12:59;14.93;;;11.77;;
56718;SDS011;42597;40.636;0.278;2022-07-25T12:15:27;17.52;;;11.07;;
56718;SDS011;42597;40.636;0.278;2022-07-25T12:17:54;17.50;;;10.48;;
56718;SDS011;42597;40.636;0.278;2022-07-25T12:23:18;15.63;;;10.23;;
56718;SDS011;42597;40.636;0.278;2022-07-25T12:25:46;12.73;;;10.93;;
56718;SDS011;42597;40.636;0.278;2022-07-25T12:28:12;15.95;;;11.18;;
56718;SDS011;42597;40.636;0.278;2022-07-25T12:30:38;12.93;;;10.13;;
56718;SDS011;42597;40.636;0.278;2022-07-25T12:33:06;12.27;;;11.07;;
56718;SDS011;42597;40.636;0.278;2022-07-25T12:35:32;16.60;;;10.63;;
56718;SDS011;42597;40.636;0.278;2022-07-25T12:37:58;16.60;;;10.65;;
56718;SDS011;42597;40.636;0.278;2022-07-25T12:40:23;17.10;;;10.52;;
56718;SDS011;42597;40.636;0.278;2022-07-25T12:42:49;11.10;;;9.98;;
56718;SDS011;42597;40.636;0.278;2022-07-25T12:45:15;11.90;;;10.15;;
56718;SDS011;42597;40.636;0.278;2022-07-25T12:47:45;13.15;;;10.00;;
56718;SDS011;42597;40.636;0.278;2022-07-25T12:50:12;13.27;;;11.32;;
56718;SDS011;42597;40.636;0.278;2022-07-25T12:52:39;13.43;;;10.77;;
56718;SDS011;42597;40.636;0.278;2022-07-25T12:55:06;15.55;;;11.02;;
56718;SDS011;42597;40.636;0.278;2022-07-25T12:57:34;21.27;;;10.02;;
56718;SDS011;42597;40.636;0.278;2022-07-25T13:00:00;14.38;;;10.80;;
56718;SDS011;42597;40.636;0.278;2022-07-25T13:02:26;17.55;;;10.27;;
56718;SDS011;42597;40.636;0.278;2022-07-25T13:04:52;14.45;;;9.73;;
56718;SDS011;42597;40.636;0.278;2022-07-25T13:07:17;11.40;;;8.65;;
56718;SDS011;42597;40.636;0.278;2022-07-25T13:09:43;12.07;;;8.85;;
56718;SDS011;42597;40.636;0.278;2022-07-25T13:12:09;11.70;;;9.15;;
56718;SDS011;42597;40.636;0.278;2022-07-25T13:14:34;12.18;;;8.60;;
56718;SDS011;42597;40.636;0.278;2022-07-25T13:17:00;14.23;;;10.18;;
56718;SDS011;42597;40.636;0.278;2022-07-25T13:19:26;14.60;;;11.13;;
56718;SDS011;42597;40.636;0.278;2022-07-25T13:21:52;15.23;;;10.90;;
56718;SDS011;42597;40.636;0.278;2022-07-25T13:24:18;12.32;;;9.73;;
56718;SDS011;42597;40.636;0.278;2022-07-25T13:26:43;13.15;;;9.25;;
56718;SDS011;42597;40.636;0.278;2022-07-25T13:29:09;14.25;;;10.10;;
56718;SDS011;42597;40.636;0.278;2022-07-25T13:31:36;14.05;;;9.68;;
56718;SDS011;42597;40.636;0.278;2022-07-25T13:34:03;16.42;;;9.80;;
56718;SDS011;42597;40.636;0.278;2022-07-25T13:36:30;14.25;;;9.57;;
56718;SDS011;42597;40.636;0.278;2022-07-25T13:38:57;12.32;;;10.90;;
56718;SDS011;42597;40.636;0.278;2022-07-25T13:41:23;19.90;;;16.08;;
56718;SDS011;42597;40.636;0.278;2022-07-25T13:43:48;11.52;;;9.98;;
56718;SDS011;42597;40.636;0.278;2022-07-25T13:46:14;12.57;;;8.77;;
56718;SDS011;42597;40.636;0.278;2022-07-25T13:48:40;10.18;;;9.13;;
56718;SDS011;42597;40.636;0.278;2022-07-25T13:51:05;15.32;;;9.80;;
56718;SDS011;42597;40.636;0.278;2022-07-25T13:53:31;10.80;;;8.27;;
56718;SDS011;42597;40.636;0.278;2022-07-25T13:55:57;10.10;;;8.93;;
56718;SDS011;42597;40.636;0.278;2022-07-25T13:58:23;12.65;;;9.68;;
56718;SDS011;42597;40.636;0.278;2022-07-25T14:00:49;12.18;;;8.95;;
56718;SDS011;42597;40.636;0.278;2022-07-25T14:03:15;12.32;;;9.13;;
56718;SDS011;42597;40.636;0.278;2022-07-25T14:05:41;11.80;;;8.93;;
56718;SDS011;42597;40.636;0.278;2022-07-25T14:08:06;13.02;;;9.68;;
56718;SDS011;42597;40.636;0.278;2022-07-25T14:10:32;9.57;;;8.32;;
56718;SDS011;42597;40.636;0.278;2022-07-25T14:12:58;10.15;;;9.02;;
56718;SDS011;42597;40.636;0.278;2022-07-25T14:15:24;12.15;;;8.23;;
56718;SDS011;42597;40.636;0.278;2022-07-25T14:17:50;10.40;;;8.85;;
56718;SDS011;42597;40.636;0.278;2022-07-25T14:20:16;15.68;;;8.60;;
56718;SDS011;42597;40.636;0.278;2022-07-25T14:22:42;19.33;;;9.80;;
56718;SDS011;42597;40.636;0.278;2022-07-25T14:25:08;14.57;;;9.77;;
56718;SDS011;42597;40.636;0.278;2022-07-25T14:27:35;17.02;;;9.85;;
56718;SDS011;42597;40.636;0.278;2022-07-25T14:30:02;10.43;;;8.82;;
56718;SDS011;42597;40.636;0.278;2022-07-25T14:32:28;17.23;;;9.05;;
56718;SDS011;42597;40.636;0.278;2022-07-25T14:34:54;10.93;;;8.90;;
56718;SDS011;42597;40.636;0.278;2022-07-25T14:37:19;15.25;;;8.43;;
56718;SDS011;42597;40.636;0.278;2022-07-25T14:39:46;13.50;;;8.38;;
56718;SDS011;42597;40.636;0.278;2022-07-25T14:42:12;13.50;;;8.15;;
56718;SDS011;42597;40.636;0.278;2022-07-25T14:44:38;12.15;;;8.10;;
56718;SDS011;42597;40.636;0.278;2022-07-25T14:47:04;9.75;;;8.75;;
56718;SDS011;42597;40.636;0.278;2022-07-25T14:49:30;12.73;;;9.00;;
56718;SDS011;42597;40.636;0.278;2022-07-25T14:51:56;14.43;;;9.07;;
56718;SDS011;42597;40.636;0.278;2022-07-25T14:54:22;15.82;;;9.05;;
56718;SDS011;42597;40.636;0.278;2022-07-25T14:56:52;10.18;;;8.98;;